METAR Data
IDs: Format: Raw Decoded Include TAF

Data at: 1217 UTC 16 Jul 2019

PHNL 161153Z 06008KT 10SM CLR 27/21 A2995 RMK AO2 SLP142 T02720206 10278 20267 58010
PHNL 161053Z 06009KT 10SM FEW025 27/21 A2996 RMK AO2 SLP146 T02720206

PHNL 161140Z 1612/1718 06008KT P6SM FEW025 SCT045
  FM162000 06015G22KT P6SM FEW025 SCT045
  FM170600 06009KT P6SM FEW025 SCT040


PHOG 161154Z AUTO 07007KT 10SM CLR 26/21 A2994 RMK AO2 SLP143 T02560206 10267 20256 58014 TSNO $
PHOG 161054Z AUTO 06008KT 10SM CLR 26/20 A2995 RMK AO2 SLP147 T02560200 TSNO $

PHOG 161140Z 1612/1712 04008KT P6SM FEW045
  FM162000 05018G28KT P6SM FEW050
  FM170500 05009KT P6SM FEW045 AMD LTD TO VIS AND WIND TIL 161600


PHKO 161153Z AUTO 05017KT 10SM CLR 27/17 A2990 RMK AO2 SLP126 T02720167 10283 20256 58015 TSNO
PHKO 161053Z AUTO 34013KT 10SM CLR 27/17 A2992 RMK AO2 SLP132 T02720172 TSNO

PHKO 161140Z 1612/1712 03012KT P6SM FEW060
  FM162100 23010KT P6SM FEW030 SCT050
  FM170500 04010KT P6SM FEW060


PHTO 161153Z AUTO 23005KT 10SM SCT040 BKN048 22/18 A2997 RMK AO2 SLP145 60010 70010 T02220183 10256 20222 56017 TSNO
PHTO 161053Z AUTO 23005KT 10SM CLR 23/19 A2998 RMK AO2 SLP150 T02280189 TSNO

PHTO 161140Z 1612/1712 24005KT P6SM VCSH SCT025 BKN040
  FM161900 10010KT P6SM SCT030 BKN050
  FM170500 23005KT P6SM FEW025 SCT050


PHLI 161153Z AUTO 07012KT 10SM BKN021 BKN034 BKN060 27/23 A2998 RMK AO2 SLP150 60000 T02670228 10272 20250 58009 TSNO
PHLI 161144Z AUTO 08011KT 10SM SCT020 BKN029 BKN055 26/23 A2998 RMK AO2 T02610228 TSNO
PHLI 161053Z AUTO 10007KT 10SM FEW018 BKN034 OVC043 25/22 A2999 RMK AO2 RAE39 SLP153 P0000 T02500222 TSNO
PHLI 161030Z AUTO 08009G23KT 7SM -RA SCT019 BKN025 OVC032 25/22 A3000 RMK AO2 P0000 T02500222 TSNO

PHLI 161140Z 1612/1712 07012KT P6SM VCSH SCT025 SCT045